createdAt,value
2017-03-21T00:00:09.336Z,730.03
2017-03-21T00:01:09.324Z,730
2017-03-21T00:02:09.304Z,730.03
2017-03-21T00:03:09.293Z,730.02
2017-03-21T00:04:09.274Z,729.93
2017-03-21T00:05:09.257Z,730.02
2017-03-21T00:06:09.243Z,730
2017-03-21T00:07:09.231Z,729.98
2017-03-21T00:08:09.216Z,729.98
2017-03-21T00:09:09.195Z,730.04
2017-03-21T00:10:09.180Z,729.76
2017-03-21T00:11:09.169Z,729.98
2017-03-21T00:12:09.153Z,729.94
2017-03-21T00:13:09.138Z,729.96
2017-03-21T00:14:09.120Z,729.97
2017-03-21T00:15:09.108Z,730
2017-03-21T00:16:09.091Z,729.97
2017-03-21T00:17:09.076Z,729.99
2017-03-21T00:18:09.062Z,729.91
2017-03-21T00:19:09.044Z,729.95
2017-03-21T00:20:09.030Z,729.91
2017-03-21T00:21:09.015Z,729.91
2017-03-21T00:22:08.997Z,729.89
2017-03-21T00:23:08.980Z,729.87
2017-03-21T00:24:09.168Z,729.83
2017-03-21T00:25:08.954Z,729.89
2017-03-21T00:26:08.940Z,729.87
2017-03-21T00:27:08.921Z,729.92
2017-03-21T00:28:08.905Z,729.83
2017-03-21T00:29:08.889Z,729.78
2017-03-21T00:30:08.879Z,729.82
2017-03-21T00:31:08.863Z,729.84
2017-03-21T00:32:08.849Z,729.94
2017-03-21T00:33:08.834Z,729.88
2017-03-21T00:34:08.817Z,729.97
2017-03-21T00:35:08.802Z,729.84
2017-03-21T00:36:08.783Z,729.87
2017-03-21T00:37:08.774Z,729.9
2017-03-21T00:38:08.754Z,729.86
2017-03-21T00:39:08.738Z,729.78
2017-03-21T00:40:08.726Z,729.87
2017-03-21T00:41:08.712Z,729.81
2017-03-21T00:42:08.695Z,729.77
2017-03-21T00:43:08.677Z,729.76
2017-03-21T00:44:08.665Z,729.76
2017-03-21T00:45:08.651Z,729.73
2017-03-21T00:46:08.632Z,729.76
2017-03-21T00:47:08.621Z,729.7
2017-03-21T00:48:08.602Z,729.77
2017-03-21T00:49:08.591Z,729.52
2017-03-21T00:50:08.575Z,729.68
2017-03-21T00:51:08.556Z,729.75
2017-03-21T00:52:08.541Z,729.69
2017-03-21T00:54:08.514Z,729.74
2017-03-21T00:55:08.498Z,729.71
2017-03-21T00:56:08.479Z,729.74
2017-03-21T00:57:08.468Z,729.75
2017-03-21T00:58:08.453Z,729.79
2017-03-21T00:59:08.438Z,729.75
2017-03-21T01:00:08.419Z,729.8
2017-03-21T01:01:08.403Z,729.76
2017-03-21T01:02:08.388Z,729.67
2017-03-21T01:03:08.375Z,729.8
2017-03-21T01:04:08.358Z,729.7
2017-03-21T01:05:08.347Z,729.71
2017-03-21T01:06:08.331Z,729.68
2017-03-21T01:07:08.312Z,729.78
2017-03-21T01:08:08.301Z,729.59
2017-03-21T01:09:08.282Z,729.72
2017-03-21T01:10:08.266Z,729.78
2017-03-21T01:11:08.250Z,729.75
2017-03-21T01:12:08.236Z,729.62
2017-03-21T01:13:08.224Z,729.68
2017-03-21T01:14:08.205Z,729.52
2017-03-21T01:15:08.189Z,729.61
2017-03-21T01:16:08.173Z,729.62
2017-03-21T01:17:08.163Z,729.7
2017-03-21T01:18:08.143Z,729.6
2017-03-21T01:19:08.133Z,729.71
2017-03-21T01:20:08.113Z,729.64
2017-03-21T01:21:08.097Z,729.74
2017-03-21T01:22:08.084Z,729.68
2017-03-21T01:23:08.069Z,729.66
2017-03-21T01:24:08.053Z,729.53
2017-03-21T01:25:08.037Z,729.66
2017-03-21T01:26:08.022Z,729.66
2017-03-21T01:27:08.003Z,729.61
2017-03-21T01:28:07.989Z,729.56
2017-03-21T01:29:07.975Z,729.64
2017-03-21T01:30:08.160Z,729.6
2017-03-21T01:31:07.945Z,729.54
2017-03-21T01:32:07.931Z,729.55
2017-03-21T01:33:07.915Z,729.62
2017-03-21T01:34:07.900Z,729.54
2017-03-21T01:35:07.884Z,729.48
2017-03-21T01:36:07.868Z,729.49
2017-03-21T01:37:07.851Z,729.5
2017-03-21T01:38:07.833Z,729.53
2017-03-21T01:39:07.822Z,729.46
2017-03-21T01:40:07.802Z,729.53
2017-03-21T01:41:07.786Z,729.54
2017-03-21T01:42:07.776Z,729.57
2017-03-21T01:43:07.755Z,729.5
2017-03-21T01:44:07.741Z,729.48
2017-03-21T01:45:07.725Z,729.48
2017-03-21T01:46:07.709Z,729.44
2017-03-21T01:47:07.696Z,729.47
2017-03-21T01:48:07.681Z,729.39
2017-03-21T01:49:07.662Z,729.49
2017-03-21T01:50:07.647Z,729.48
2017-03-21T01:51:07.630Z,729.46
2017-03-21T01:52:07.614Z,729.47
2017-03-21T01:53:07.600Z,729.47
2017-03-21T01:54:07.588Z,729.47
2017-03-21T01:55:07.567Z,729.52
2017-03-21T01:56:07.552Z,729.46
2017-03-21T01:57:07.537Z,729.53
2017-03-21T01:58:07.520Z,729.47
2017-03-21T01:59:07.506Z,729.49
2017-03-21T02:00:07.494Z,729.48
2017-03-21T02:01:07.479Z,729.5
2017-03-21T02:02:07.462Z,729.52
2017-03-21T02:03:07.445Z,729.48
2017-03-21T02:04:07.438Z,729.46
2017-03-21T02:05:07.413Z,729.44
2017-03-21T02:06:07.402Z,729.43
2017-03-21T02:07:07.386Z,729.5
2017-03-21T02:08:07.373Z,729.41
2017-03-21T02:09:07.354Z,729.46
2017-03-21T02:10:07.342Z,729.46
2017-03-21T02:11:07.324Z,729.39
2017-03-21T02:12:07.307Z,729.4
2017-03-21T02:13:07.297Z,729.39
2017-03-21T02:14:07.279Z,729.38
2017-03-21T02:15:07.262Z,729.35
2017-03-21T02:16:07.248Z,729.34
2017-03-21T02:17:07.237Z,729.34
2017-03-21T02:18:07.222Z,729.33
2017-03-21T02:19:07.207Z,729.34
2017-03-21T02:20:07.188Z,729.27
2017-03-21T02:21:07.178Z,729.27
2017-03-21T02:22:07.162Z,729.28
2017-03-21T02:23:07.144Z,729.27
2017-03-21T02:24:07.131Z,729.34
2017-03-21T02:25:07.117Z,729.25
2017-03-21T02:26:07.102Z,729.32
2017-03-21T02:27:07.084Z,729.28
2017-03-21T02:28:07.068Z,729.29
2017-03-21T02:29:07.057Z,729.27
2017-03-21T02:30:07.040Z,729.29
2017-03-21T02:31:07.022Z,729.24
2017-03-21T02:32:07.006Z,729.24
2017-03-21T02:33:06.997Z,729.24
2017-03-21T02:34:06.981Z,729.3
2017-03-21T02:35:06.964Z,729.22
2017-03-21T02:36:06.946Z,729.23
2017-03-21T02:37:06.934Z,729.39
2017-03-21T02:38:06.920Z,729.19
2017-03-21T02:39:06.901Z,729.28
2017-03-21T02:40:06.885Z,729.22
2017-03-21T02:41:06.873Z,729.23
2017-03-21T02:42:06.858Z,729.23
2017-03-21T02:43:06.843Z,729.22
2017-03-21T02:44:06.828Z,729.18
2017-03-21T02:45:06.810Z,729.22
2017-03-21T02:46:06.797Z,729.19
2017-03-21T02:47:06.783Z,729.25
2017-03-21T02:48:06.768Z,729.25
2017-03-21T02:49:06.753Z,729.26
2017-03-21T02:50:06.732Z,729.23
2017-03-21T02:51:06.717Z,729.24
2017-03-21T02:52:06.705Z,729.18
2017-03-21T02:53:06.691Z,729.22
2017-03-21T02:54:06.675Z,729.24
2017-03-21T02:55:06.660Z,729.22
2017-03-21T02:56:06.642Z,729.23
2017-03-21T02:57:06.631Z,729.18
2017-03-21T02:58:06.610Z,729.24
2017-03-21T02:59:06.596Z,729.23
2017-03-21T03:00:06.584Z,729.25
2017-03-21T03:01:06.564Z,729.22
2017-03-21T03:02:06.554Z,729.25
2017-03-21T03:03:06.535Z,729.26
2017-03-21T03:04:06.519Z,729.19
2017-03-21T03:05:06.504Z,729.25
2017-03-21T03:06:06.493Z,729.2
2017-03-21T03:07:06.478Z,729.19
2017-03-21T03:08:06.461Z,729.26
2017-03-21T03:09:06.447Z,729.26
2017-03-21T03:10:06.429Z,729.31
2017-03-21T03:11:06.416Z,729.23
2017-03-21T03:12:06.398Z,729.26
2017-03-21T03:13:06.386Z,729.16
2017-03-21T03:14:06.369Z,729.11
2017-03-21T03:15:06.356Z,729.21
2017-03-21T03:16:06.338Z,729.22
2017-03-21T03:17:06.321Z,729.21
2017-03-21T03:18:06.310Z,729.16
2017-03-21T03:19:06.295Z,729.16
2017-03-21T03:20:06.274Z,729.19
2017-03-21T03:21:06.263Z,729.17
2017-03-21T03:22:06.247Z,729.24
2017-03-21T03:23:06.234Z,729.23
2017-03-21T03:24:06.217Z,729.19
2017-03-21T03:25:06.202Z,729.28
2017-03-21T03:26:06.187Z,729.22
2017-03-21T03:27:06.171Z,729.17
2017-03-21T03:28:06.155Z,729.21
2017-03-21T03:29:06.141Z,729.18
2017-03-21T03:30:06.120Z,729.26
2017-03-21T03:31:06.109Z,729.17
2017-03-21T03:32:06.094Z,729.25
2017-03-21T03:33:06.078Z,729.18
2017-03-21T03:34:06.058Z,729.25
2017-03-21T03:35:06.044Z,729.21
2017-03-21T03:36:06.031Z,729.23
2017-03-21T03:37:06.015Z,729.25
2017-03-21T03:38:05.999Z,729.23
2017-03-21T03:39:05.982Z,729.24
2017-03-21T03:40:05.964Z,729.24
2017-03-21T03:41:05.949Z,729.27
2017-03-21T03:42:05.937Z,729.25
2017-03-21T03:43:05.918Z,729.23
2017-03-21T03:44:05.905Z,729.19
2017-03-21T03:45:05.885Z,729.25
2017-03-21T03:46:05.874Z,729.28
2017-03-21T03:47:05.854Z,729.23
2017-03-21T03:48:05.838Z,729.26
2017-03-21T03:49:05.823Z,729.18
2017-03-21T03:50:05.810Z,729.23
2017-03-21T03:51:05.795Z,729.3
2017-03-21T03:52:05.779Z,729.15
2017-03-21T03:53:05.763Z,729.22
2017-03-21T03:54:05.748Z,729.23
2017-03-21T03:55:05.731Z,729.19
2017-03-21T03:56:05.711Z,729.17
2017-03-21T03:57:05.700Z,729.13
2017-03-21T03:58:05.685Z,729.19
2017-03-21T03:59:05.664Z,729.22
2017-03-21T04:00:05.652Z,729.2
2017-03-21T04:01:05.632Z,729.18
2017-03-21T04:02:05.621Z,729.17
2017-03-21T04:03:05.602Z,729.13
2017-03-21T04:04:05.590Z,729.23
2017-03-21T04:05:05.574Z,729.19
2017-03-21T04:06:05.558Z,729.21
2017-03-21T04:07:05.538Z,729.14
2017-03-21T04:08:05.522Z,729.12
2017-03-21T04:09:05.508Z,729.13
2017-03-21T04:10:05.495Z,729.08
2017-03-21T04:11:05.478Z,729.13
2017-03-21T04:12:05.463Z,729.15
2017-03-21T04:13:05.443Z,729.18
2017-03-21T04:14:05.430Z,729.1
2017-03-21T04:15:05.415Z,729.12
2017-03-21T04:16:05.399Z,729.19
2017-03-21T04:17:05.382Z,729.15
2017-03-21T04:18:05.363Z,729.08
2017-03-21T04:19:05.348Z,729.18
2017-03-21T04:20:05.330Z,729.15
2017-03-21T04:21:05.317Z,729.11
2017-03-21T04:22:05.299Z,729.15
2017-03-21T04:23:05.282Z,729.16
2017-03-21T04:24:05.266Z,729.14
2017-03-21T04:25:05.249Z,729.14
2017-03-21T04:26:05.238Z,729.07
2017-03-21T04:27:05.221Z,729.18
2017-03-21T04:28:05.204Z,729.04
2017-03-21T04:29:05.190Z,728.99
2017-03-21T04:30:05.174Z,729.02
2017-03-21T04:31:05.154Z,729.15
2017-03-21T04:32:05.141Z,729.11
2017-03-21T04:33:05.126Z,729.12
2017-03-21T04:34:05.110Z,729.06
2017-03-21T04:35:05.090Z,729.1
2017-03-21T04:36:05.074Z,729.1
2017-03-21T04:37:05.063Z,729.08
2017-03-21T04:38:05.043Z,729.05
2017-03-21T04:39:05.027Z,729.04
2017-03-21T04:40:05.010Z,729.05
2017-03-21T04:41:04.994Z,728.96
2017-03-21T04:42:04.978Z,729.05
2017-03-21T04:43:04.966Z,729.09
2017-03-21T04:44:04.949Z,729.14
2017-03-21T04:45:04.934Z,729.07
2017-03-21T04:46:04.917Z,729.12
2017-03-21T04:47:04.902Z,729.06
2017-03-21T04:48:04.881Z,729.13
2017-03-21T04:49:04.866Z,729.1
2017-03-21T04:50:04.852Z,729.09
2017-03-21T04:51:04.833Z,729.08
2017-03-21T04:52:04.821Z,729.1
2017-03-21T04:53:04.805Z,729.09
2017-03-21T04:54:04.789Z,729.03
2017-03-21T04:55:04.773Z,729.04
2017-03-21T04:56:04.757Z,729.13
2017-03-21T04:57:04.736Z,729.12
2017-03-21T04:58:04.720Z,729.04
2017-03-21T04:59:04.705Z,729.06
2017-03-21T05:00:04.688Z,729.01
2017-03-21T05:01:04.672Z,729.03
2017-03-21T05:02:04.660Z,729.04
2017-03-21T05:03:04.645Z,729.09
2017-03-21T05:04:04.629Z,729.07
2017-03-21T05:05:04.610Z,729.1
2017-03-21T05:06:04.597Z,729.03
2017-03-21T05:07:04.582Z,728.95
2017-03-21T05:08:04.561Z,729.06
2017-03-21T05:09:04.546Z,729.06
2017-03-21T05:10:04.534Z,728.97
2017-03-21T05:11:04.514Z,728.99
2017-03-21T05:12:04.504Z,729.04
2017-03-21T05:13:04.487Z,728.99
2017-03-21T05:14:04.471Z,728.99
2017-03-21T05:15:04.455Z,729.01
2017-03-21T05:16:04.436Z,729.01
2017-03-21T05:17:04.419Z,729.04
2017-03-21T05:18:04.408Z,729.06
2017-03-21T05:19:04.392Z,729.04
2017-03-21T05:20:04.375Z,729.03
2017-03-21T05:21:04.356Z,729.08
2017-03-21T05:22:04.344Z,729.06
2017-03-21T05:23:04.323Z,729.1
2017-03-21T05:24:04.311Z,729.04
2017-03-21T05:25:04.292Z,729.06
2017-03-21T05:26:04.281Z,729.11
2017-03-21T05:27:04.264Z,729.08
2017-03-21T05:28:04.245Z,729.1
2017-03-21T05:29:04.233Z,729.04
2017-03-21T05:30:04.217Z,729.08
2017-03-21T05:31:04.198Z,729.04
2017-03-21T05:32:04.186Z,729.09
2017-03-21T05:33:04.173Z,729.09
2017-03-21T05:34:04.150Z,729.09
2017-03-21T05:35:04.139Z,729.07
2017-03-21T05:36:04.124Z,729.03
2017-03-21T05:37:04.104Z,729.09
2017-03-21T05:38:04.093Z,729.07
2017-03-21T05:39:04.078Z,729.1
2017-03-21T05:40:04.059Z,729.04
2017-03-21T05:41:04.043Z,729.07
2017-03-21T05:42:04.029Z,729.08
2017-03-21T05:43:04.017Z,729.04
2017-03-21T05:44:04.002Z,729.06
2017-03-21T05:45:03.986Z,729.08
2017-03-21T05:46:03.971Z,729.09
2017-03-21T05:47:03.952Z,729.07
2017-03-21T05:48:03.942Z,729.06
2017-03-21T05:49:03.921Z,729.06
2017-03-21T05:50:03.911Z,729.07
2017-03-21T05:51:03.895Z,729.03
2017-03-21T05:52:03.879Z,729.08
2017-03-21T05:53:03.861Z,729.09
2017-03-21T05:54:03.847Z,729.08
2017-03-21T05:55:03.830Z,729.07
2017-03-21T05:56:03.819Z,729.09
2017-03-21T05:57:03.804Z,729.12
2017-03-21T05:58:03.785Z,729.16
2017-03-21T05:59:03.774Z,729.09
2017-03-21T06:00:03.758Z,729.05
2017-03-21T06:01:03.741Z,729.11
2017-03-21T06:02:03.729Z,729.07
2017-03-21T06:03:03.713Z,729.1
2017-03-21T06:04:03.695Z,728.99
2017-03-21T06:05:03.682Z,729.03
2017-03-21T06:06:03.667Z,729.07
2017-03-21T06:07:03.652Z,729.05
2017-03-21T06:08:03.635Z,729.09
2017-03-21T06:09:03.623Z,729.08
2017-03-21T06:10:03.608Z,729.02
2017-03-21T06:11:03.588Z,729.06
2017-03-21T06:12:03.579Z,729.06
2017-03-21T06:13:03.559Z,729.06
2017-03-21T06:14:03.548Z,729.02
2017-03-21T06:15:03.529Z,729.05
2017-03-21T06:16:03.514Z,729.03
2017-03-21T06:17:03.499Z,729.02
2017-03-21T06:18:03.488Z,729.09
2017-03-21T06:19:03.473Z,729.03
2017-03-21T06:20:03.452Z,729.02
2017-03-21T06:21:03.436Z,729.08
2017-03-21T06:22:03.427Z,729.15
2017-03-21T06:23:03.407Z,729.17
2017-03-21T06:24:03.394Z,729.16
2017-03-21T06:25:03.381Z,729.13
2017-03-21T06:26:03.367Z,729.12
2017-03-21T06:27:03.352Z,729.14
2017-03-21T06:28:03.333Z,729.13
2017-03-21T06:29:03.322Z,729.18
2017-03-21T06:30:03.307Z,729.14
2017-03-21T06:31:03.293Z,729.16
2017-03-21T06:32:03.286Z,729.11
2017-03-21T06:33:03.263Z,729.09
2017-03-21T06:34:03.256Z,729.13
2017-03-21T06:35:03.234Z,729.1
2017-03-21T06:36:03.214Z,729.13
2017-03-21T06:37:03.205Z,729.14
2017-03-21T06:38:03.190Z,729.23
2017-03-21T06:39:03.177Z,729.17
2017-03-21T06:40:03.156Z,729.21
2017-03-21T06:41:03.149Z,729.26
2017-03-21T06:42:03.131Z,729.23
2017-03-21T06:43:03.118Z,729.22
2017-03-21T06:44:03.099Z,729.27
2017-03-21T06:45:03.084Z,729.28
2017-03-21T06:46:03.081Z,729.31
2017-03-21T06:47:03.062Z,729.27
2017-03-21T06:48:03.052Z,729.29
2017-03-21T06:49:03.036Z,729.32
2017-03-21T06:50:03.026Z,729.26
2017-03-21T06:51:03.008Z,729.3
2017-03-21T06:52:02.987Z,729.27
2017-03-21T06:53:02.978Z,729.3
2017-03-21T06:54:02.959Z,729.37
2017-03-21T06:55:02.950Z,729.32
2017-03-21T07:00:49.215Z,729.29
2017-03-21T07:01:49.195Z,729.3
2017-03-21T07:02:49.182Z,729.29
2017-03-21T07:03:49.171Z,729.31
2017-03-21T07:04:49.158Z,729.29
2017-03-21T07:05:49.141Z,729.32
2017-03-21T07:06:49.126Z,729.31
2017-03-21T07:07:49.117Z,729.31
2017-03-21T07:08:49.104Z,729.31
2017-03-21T07:09:49.091Z,729.38
2017-03-21T07:10:49.081Z,729.31
2017-03-21T07:11:49.065Z,729.41
2017-03-21T07:12:49.049Z,729.42
2017-03-21T07:13:49.035Z,729.42
2017-03-21T07:14:49.022Z,729.42
2017-03-21T07:15:49.009Z,729.39
2017-03-21T07:16:49.003Z,729.31
2017-03-21T07:17:48.985Z,729.4
2017-03-21T07:18:48.972Z,729.44
2017-03-21T07:19:48.959Z,729.44
2017-03-21T07:20:48.948Z,729.43
2017-03-21T07:21:48.938Z,729.49
2017-03-21T07:22:48.923Z,729.38
2017-03-21T07:23:48.913Z,729.35
2017-03-21T07:24:48.896Z,729.43
2017-03-21T07:25:48.889Z,729.39
2017-03-21T07:26:48.872Z,729.36
2017-03-21T07:27:48.864Z,729.27
2017-03-21T07:28:48.850Z,729.31
2017-03-21T07:29:48.837Z,729.31
2017-03-21T07:30:48.828Z,729.34
2017-03-21T07:31:48.814Z,729.37
2017-03-21T07:32:48.810Z,729.31
2017-03-21T07:33:48.798Z,729.37
2017-03-21T07:34:48.786Z,729.39
2017-03-21T07:35:48.770Z,729.39
2017-03-21T07:37:48.956Z,729.35
2017-03-21T07:38:48.742Z,729.36
2017-03-21T07:39:48.728Z,729.39
2017-03-21T07:40:48.715Z,729.4
2017-03-21T07:41:48.707Z,729.43
2017-03-21T07:42:48.702Z,729.43
2017-03-21T07:43:48.683Z,729.42
2017-03-21T07:44:48.671Z,729.46
2017-03-21T07:45:48.660Z,729.45
2017-03-21T07:46:48.647Z,729.44
2017-03-21T07:47:48.637Z,729.44
2017-03-21T07:48:48.631Z,729.49
2017-03-21T07:49:48.615Z,729.48
2017-03-21T07:50:48.608Z,729.47
2017-03-21T07:51:48.598Z,729.49
2017-03-21T07:52:48.587Z,729.5
2017-03-21T07:53:48.576Z,729.52
2017-03-21T07:54:48.565Z,729.53
2017-03-21T07:55:48.549Z,729.41
2017-03-21T07:56:48.538Z,729.43
2017-03-21T07:57:48.531Z,729.49
2017-03-21T07:58:48.516Z,729.46
2017-03-21T07:59:48.509Z,729.45
2017-03-21T08:00:48.497Z,729.47
2017-03-21T08:01:48.483Z,729.44
2017-03-21T08:02:48.475Z,729.46
2017-03-21T08:03:48.462Z,729.44
2017-03-21T08:04:48.448Z,729.4
2017-03-21T08:05:48.440Z,729.42
2017-03-21T08:06:48.425Z,729.45
2017-03-21T08:07:48.414Z,729.44
2017-03-21T08:08:48.402Z,729.4
2017-03-21T08:09:48.393Z,729.4
2017-03-21T08:10:48.380Z,729.36
2017-03-21T08:11:48.367Z,729.39
2017-03-21T08:12:48.351Z,729.38
2017-03-21T08:13:48.544Z,729.34
2017-03-21T08:14:48.324Z,729.4
2017-03-21T08:15:48.311Z,729.4
2017-03-21T08:16:48.303Z,729.31
2017-03-21T08:17:48.286Z,729.33
2017-03-21T08:18:48.276Z,729.36
2017-03-21T08:19:48.263Z,729.34
2017-03-21T08:20:48.249Z,729.31
2017-03-21T08:21:48.231Z,729.37
2017-03-21T08:22:48.218Z,729.36
2017-03-21T08:23:48.209Z,729.33
2017-03-21T08:24:48.190Z,729.41
2017-03-21T08:25:48.175Z,729.29
2017-03-21T08:26:48.166Z,729.34
2017-03-21T08:27:48.153Z,729.41
2017-03-21T08:28:48.139Z,729.32
2017-03-21T08:29:48.123Z,729.28
2017-03-21T08:30:48.109Z,729.31
2017-03-21T08:31:48.096Z,729.35
2017-03-21T08:32:48.082Z,729.38
2017-03-21T08:33:48.067Z,729.28
2017-03-21T08:34:48.053Z,729.32
2017-03-21T08:35:48.036Z,729.3
2017-03-21T08:36:48.024Z,729.29
2017-03-21T08:37:48.011Z,729.33
2017-03-21T08:38:47.997Z,729.32
2017-03-21T08:39:47.983Z,729.33
2017-03-21T08:40:47.966Z,729.32
2017-03-21T08:41:47.955Z,729.31
2017-03-21T08:42:47.941Z,729.35
2017-03-21T08:43:47.926Z,729.11
2017-03-21T08:44:47.908Z,729.27
2017-03-21T08:45:47.897Z,729.35
2017-03-21T08:46:47.881Z,729.38
2017-03-21T08:47:47.867Z,729.42
2017-03-21T08:48:47.857Z,729.39
2017-03-21T08:49:47.844Z,729.42
2017-03-21T08:50:47.829Z,729.39
2017-03-21T08:51:47.816Z,729.39
2017-03-21T08:52:47.799Z,729.36
2017-03-21T08:53:47.786Z,729.43
2017-03-21T08:54:47.775Z,729.49
2017-03-21T08:55:47.762Z,729.43
2017-03-21T08:56:47.746Z,729.42
2017-03-21T08:57:47.736Z,729.44
2017-03-21T08:58:47.717Z,729.48
2017-03-21T08:59:47.708Z,729.49
2017-03-21T09:00:47.690Z,729.46
2017-03-21T09:01:47.678Z,729.49
2017-03-21T09:02:47.667Z,729.48
2017-03-21T09:03:47.654Z,729.52
2017-03-21T09:04:47.637Z,729.48
2017-03-21T09:05:47.627Z,729.55
2017-03-21T09:09:47.574Z,729.55
2017-03-21T09:10:47.558Z,729.5
2017-03-21T09:11:47.550Z,729.47
2017-03-21T09:12:47.542Z,729.53
2017-03-21T09:13:47.524Z,729.55
2017-03-21T09:14:47.507Z,729.45
2017-03-21T09:15:47.499Z,729.45
2017-03-21T09:16:47.483Z,729.45
2017-03-21T09:17:47.471Z,729.44
2017-03-21T09:18:47.458Z,729.42
2017-03-21T09:19:47.449Z,729.45
2017-03-21T09:20:47.431Z,729.45
2017-03-21T09:21:47.420Z,729.48
2017-03-21T09:22:47.411Z,729.43
2017-03-21T09:23:47.395Z,729.37
2017-03-21T09:24:47.383Z,729.37
2017-03-21T09:25:47.371Z,729.35
2017-03-21T09:26:47.366Z,729.4
2017-03-21T09:27:47.347Z,729.31
2017-03-21T09:28:47.336Z,729.32
2017-03-21T09:29:47.324Z,729.44
2017-03-21T09:30:47.313Z,729.4
2017-03-21T09:31:47.300Z,729.38
2017-03-21T09:32:47.293Z,729.37
2017-03-21T09:33:47.278Z,729.4
2017-03-21T09:34:47.268Z,729.39
2017-03-21T09:35:47.254Z,729.33
2017-03-21T09:36:47.246Z,729.33
2017-03-21T09:37:47.233Z,729.33
2017-03-21T09:38:47.221Z,729.27
2017-03-21T09:39:47.209Z,729.24
2017-03-21T09:40:47.198Z,729.22
2017-03-21T09:41:47.190Z,729.22
2017-03-21T09:42:47.174Z,729.29
2017-03-21T09:43:47.165Z,729.21
2017-03-21T09:44:47.150Z,729.25
2017-03-21T09:45:47.139Z,729.29
2017-03-21T09:46:47.126Z,729.22
2017-03-21T09:47:47.117Z,729.24
2017-03-21T09:48:47.106Z,729.24
2017-03-21T09:49:47.087Z,729.16
2017-03-21T09:50:47.076Z,729.17
2017-03-21T09:51:47.064Z,729.17
2017-03-21T09:52:47.055Z,729.16
2017-03-21T09:53:47.041Z,729.25
2017-03-21T09:54:47.029Z,729.24
2017-03-21T09:55:47.018Z,729.28
2017-03-21T09:56:47.002Z,729.23
2017-03-21T09:57:46.991Z,729.19
2017-03-21T09:58:46.984Z,729.19
2017-03-21T09:59:46.972Z,729.2
2017-03-21T10:00:46.956Z,729.22
2017-03-21T10:01:46.945Z,729.25
2017-03-21T10:02:46.935Z,729.29
2017-03-21T10:03:46.925Z,729.27
2017-03-21T10:04:46.918Z,729.28
2017-03-21T10:05:46.908Z,729.27
2017-03-21T10:06:46.896Z,729.24
2017-03-21T10:07:46.885Z,729.19
2017-03-21T10:08:46.880Z,729.14
2017-03-21T10:09:46.871Z,729.16
2017-03-21T10:10:46.859Z,729.11
2017-03-21T10:11:46.849Z,729.14
2017-03-21T10:12:46.841Z,729.12
2017-03-21T10:13:46.838Z,729.18
2017-03-21T10:14:46.829Z,729.17
2017-03-21T10:15:46.819Z,729.18
2017-03-21T10:16:46.808Z,729.14
2017-03-21T10:17:46.802Z,729.13
2017-03-21T10:18:46.797Z,729.2
2017-03-21T10:19:46.786Z,729.16
2017-03-21T10:20:46.783Z,729.21
2017-03-21T10:21:46.776Z,729.23
2017-03-21T10:22:46.768Z,729.2
2017-03-21T10:23:46.757Z,729.13
2017-03-21T10:24:46.756Z,729.19
2017-03-21T10:25:46.745Z,729.22
2017-03-21T10:26:46.738Z,729.26
2017-03-21T10:27:46.731Z,729.24
2017-03-21T10:28:46.727Z,729.23
2017-03-21T10:29:46.723Z,729.16
2017-03-21T10:30:46.713Z,729.21
2017-03-21T10:31:46.715Z,729.18
2017-03-21T10:32:46.703Z,729.18
2017-03-21T10:33:46.696Z,729.16
2017-03-21T10:34:46.691Z,729.12
2017-03-21T10:35:46.690Z,729.09
2017-03-21T10:36:46.681Z,729.06
2017-03-21T10:37:46.680Z,729.11
2017-03-21T10:38:46.673Z,729.16
2017-03-21T10:39:46.669Z,729.15
2017-03-21T10:40:46.660Z,729.12
2017-03-21T10:41:46.655Z,729.16
2017-03-21T10:42:46.653Z,729.14
2017-03-21T10:43:46.645Z,729.13
2017-03-21T10:44:46.643Z,729.13
2017-03-21T10:45:46.638Z,729.15
2017-03-21T10:46:46.633Z,729.11
2017-03-21T10:47:46.624Z,729.07
2017-03-21T10:48:46.622Z,729.1
2017-03-21T10:49:46.617Z,729.1
2017-03-21T10:50:46.612Z,729.05
2017-03-21T10:51:46.606Z,729.01
2017-03-21T10:52:46.596Z,729.01
2017-03-21T10:53:46.590Z,729.03
2017-03-21T10:54:46.587Z,729.01
2017-03-21T10:55:46.583Z,729.05
2017-03-21T10:56:46.579Z,729.05
2017-03-21T10:57:46.569Z,728.95
2017-03-21T10:58:46.568Z,728.9
2017-03-21T10:59:46.561Z,728.89
2017-03-21T11:00:46.555Z,728.93
2017-03-21T11:01:46.549Z,728.92
2017-03-21T11:02:46.538Z,728.88
2017-03-21T11:03:46.532Z,728.86
2017-03-21T11:04:46.533Z,728.86
2017-03-21T11:05:46.520Z,728.86
2017-03-21T11:06:46.516Z,728.81
2017-03-21T11:07:46.507Z,728.85
2017-03-21T11:08:46.501Z,728.81
2017-03-21T11:09:46.494Z,728.84
2017-03-21T11:10:46.486Z,728.85
2017-03-21T11:11:46.484Z,728.91
2017-03-21T11:12:46.477Z,728.87
2017-03-21T11:13:46.469Z,728.91
2017-03-21T11:14:46.463Z,728.79
2017-03-21T11:15:46.452Z,728.82
2017-03-21T11:16:46.445Z,728.81
2017-03-21T11:17:46.437Z,728.82
2017-03-21T11:18:46.431Z,728.79
2017-03-21T11:19:46.428Z,728.78
2017-03-21T11:20:46.426Z,728.78
2017-03-21T11:21:46.414Z,728.81
2017-03-21T11:22:46.408Z,728.78
2017-03-21T11:23:46.396Z,728.81
2017-03-21T11:24:46.393Z,728.79
2017-03-21T11:25:46.386Z,728.89
2017-03-21T11:26:46.375Z,728.87
2017-03-21T11:27:46.368Z,728.79
2017-03-21T11:28:46.365Z,728.72
2017-03-21T11:29:46.354Z,728.73
2017-03-21T11:30:46.352Z,728.7
2017-03-21T11:31:46.341Z,728.69
2017-03-21T11:32:46.334Z,728.72
2017-03-21T11:33:46.330Z,728.78
2017-03-21T11:34:46.323Z,728.77
2017-03-21T11:35:46.310Z,728.82
2017-03-21T11:36:46.303Z,728.76
2017-03-21T11:37:46.297Z,728.74
2017-03-21T11:38:46.289Z,728.7
2017-03-21T11:39:46.281Z,728.68
2017-03-21T11:40:46.274Z,728.75
2017-03-21T11:41:46.268Z,728.76
2017-03-21T11:42:46.264Z,728.69
2017-03-21T11:43:46.256Z,728.69
2017-03-21T11:44:46.250Z,728.64
2017-03-21T11:45:46.244Z,728.66
2017-03-21T11:46:46.232Z,728.62
2017-03-21T11:47:46.229Z,728.64
2017-03-21T11:48:46.219Z,728.7
2017-03-21T11:49:46.217Z,728.66
2017-03-21T11:50:46.207Z,728.63
2017-03-21T11:51:46.201Z,728.67
2017-03-21T11:52:46.192Z,728.67
2017-03-21T11:53:46.185Z,728.66
2017-03-21T11:54:46.179Z,728.72
2017-03-21T11:55:46.172Z,728.7
2017-03-21T11:56:46.165Z,728.68
2017-03-21T11:57:46.156Z,728.57
2017-03-21T11:58:46.150Z,728.59
2017-03-21T11:59:46.142Z,728.62
2017-03-21T12:00:46.140Z,728.65
2017-03-21T12:01:46.132Z,728.61
2017-03-21T12:02:46.125Z,728.58
2017-03-21T12:03:46.113Z,728.58
2017-03-21T12:04:46.109Z,728.54
2017-03-21T12:05:46.098Z,728.56
2017-03-21T12:06:46.091Z,728.59
2017-03-21T12:07:46.086Z,728.59
2017-03-21T12:08:46.077Z,728.54
2017-03-21T12:09:46.067Z,728.53
2017-03-21T12:10:46.058Z,728.49
2017-03-21T12:11:46.051Z,728.55
2017-03-21T12:12:46.044Z,728.48
2017-03-21T12:13:46.040Z,728.5
2017-03-21T12:14:46.034Z,728.45
2017-03-21T12:15:46.111Z,728.42
2017-03-21T12:16:46.016Z,728.33
2017-03-21T12:17:46.010Z,728.3
2017-03-21T12:18:46.004Z,728.35
2017-03-21T12:19:46.001Z,728.3
2017-03-21T12:20:45.991Z,728.37
2017-03-21T12:21:45.989Z,728.35
2017-03-21T12:22:45.981Z,728.36
2017-03-21T12:23:45.970Z,728.36
2017-03-21T12:24:45.964Z,728.34
2017-03-21T12:25:45.956Z,728.37
2017-03-21T12:26:45.949Z,728.31
2017-03-21T12:27:45.946Z,728.35
2017-03-21T12:28:45.940Z,728.37
2017-03-21T12:29:45.929Z,728.34
2017-03-21T12:30:45.921Z,728.35
2017-03-21T12:31:45.914Z,728.28
2017-03-21T12:32:45.909Z,728.27
2017-03-21T12:33:45.904Z,728.27
2017-03-21T12:34:45.896Z,728.3
2017-03-21T12:35:45.885Z,728.28
2017-03-21T12:36:45.878Z,728.24
2017-03-21T12:37:45.875Z,728.22
2017-03-21T12:38:45.863Z,728.24
2017-03-21T12:39:45.856Z,728.23